createdAt,value
2022-10-01T00:07:37.865Z,100.00
2022-10-01T00:18:48.575Z,100.00
2022-10-01T00:29:46.126Z,100.00
2022-10-01T00:40:45.867Z,100.00
2022-10-01T00:51:18.192Z,100.00
2022-10-01T01:02:14.803Z,100.00
2022-10-01T01:13:05.328Z,100.00
2022-10-01T01:23:43.467Z,100.00
2022-10-01T01:34:01.328Z,100.00
2022-10-01T01:44:27.850Z,100.00
2022-10-01T01:54:45.203Z,100.00
2022-10-01T02:05:03.667Z,100.00
2022-10-01T02:15:36.280Z,100.00
2022-10-01T02:26:32.313Z,100.00
2022-10-01T02:36:42.635Z,100.00
2022-10-01T02:47:21.077Z,100.00
2022-10-01T02:57:42.209Z,100.00
2022-10-01T03:08:07.549Z,100.00
2022-10-01T03:18:39.490Z,100.00
2022-10-01T03:28:57.588Z,100.00
2022-10-01T03:39:50.107Z,100.00
2022-10-01T03:50:48.580Z,100.00
2022-10-01T04:01:20.259Z,100.00
2022-10-01T04:12:12.116Z,100.00
2022-10-01T04:22:51.382Z,100.00
2022-10-01T04:33:43.042Z,100.00
2022-10-01T04:44:12.953Z,100.00
2022-10-01T04:54:43.294Z,100.00
2022-10-01T05:05:06.517Z,100.00
2022-10-01T05:15:31.936Z,100.00
2022-10-01T05:26:29.852Z,100.00
2022-10-01T05:37:03.170Z,100.00
2022-10-01T05:47:23.681Z,100.00
2022-10-01T05:57:39.966Z,100.00
2022-10-01T06:08:46.609Z,100.00
2022-10-01T06:19:07.986Z,100.00
2022-10-01T06:29:35.577Z,100.00
2022-10-01T06:40:08.246Z,100.00
2022-10-01T06:50:44.137Z,100.00
2022-10-01T07:01:03.517Z,100.00
2022-10-01T07:11:57.921Z,100.00
2022-10-01T07:22:24.960Z,100.00
2022-10-01T07:33:16.973Z,100.00
2022-10-01T07:43:53.920Z,100.00
2022-10-01T07:54:32.458Z,100.00
2022-10-01T08:05:40.374Z,100.00
2022-10-01T08:16:18.719Z,100.00
2022-10-01T08:26:30.845Z,100.00
2022-10-01T08:36:35.851Z,100.00
2022-10-01T08:46:55.918Z,99.95
2022-10-01T08:57:25.168Z,99.79
2022-10-01T09:07:41.725Z,98.54
2022-10-01T09:18:27.129Z,98.22
2022-10-01T09:28:35.182Z,98.17
2022-10-01T09:38:42.997Z,98.43
2022-10-01T09:49:50.742Z,98.92
2022-10-01T10:00:18.612Z,98.70
2022-10-01T10:10:39.748Z,98.34
2022-10-01T10:20:52.924Z,97.19
2022-10-01T10:31:27.032Z,97.14
2022-10-01T10:41:38.156Z,97.12
2022-10-01T10:52:05.018Z,97.21
2022-10-01T11:02:21.520Z,97.08
2022-10-01T11:13:06.800Z,95.31
2022-10-01T11:23:36.835Z,94.36
2022-10-01T11:34:13.884Z,93.02
2022-10-01T11:45:00.836Z,91.76
2022-10-01T11:55:53.297Z,89.67
2022-10-01T12:06:25.098Z,86.42
2022-10-01T12:16:57.886Z,85.98
2022-10-01T12:27:44.588Z,84.23
2022-10-01T12:38:35.356Z,83.40
2022-10-01T12:49:25.181Z,81.87
2022-10-01T13:00:08.042Z,80.81
2022-10-01T13:11:00.566Z,80.08
2022-10-01T13:21:38.543Z,81.02
2022-10-01T13:32:03.872Z,81.62
2022-10-01T13:42:18.530Z,81.71
2022-10-01T13:52:25.442Z,82.81
2022-10-01T14:03:01.171Z,82.42
2022-10-01T14:13:37.128Z,82.04
2022-10-01T14:24:40.262Z,82.33
2022-10-01T14:35:02.675Z,83.73
2022-10-01T14:45:25.138Z,83.92
2022-10-01T14:55:30.059Z,84.03
2022-10-01T15:05:37.457Z,84.73
2022-10-01T15:16:23.953Z,85.03
2022-10-01T15:27:00.691Z,85.98
2022-10-01T15:37:11.564Z,86.60
2022-10-01T15:47:45.534Z,87.12
2022-10-01T15:58:07.843Z,87.49
2022-10-01T16:08:24.427Z,88.15
2022-10-01T16:18:52.862Z,88.86
2022-10-01T16:29:27.095Z,89.91
2022-10-01T16:40:30.050Z,90.68
2022-10-01T16:51:22.610Z,91.37
2022-10-01T17:01:29.630Z,91.81
2022-10-01T17:11:38.862Z,92.43
2022-10-01T17:22:11.746Z,92.85
2022-10-01T17:32:20.382Z,92.90
2022-10-01T17:42:51.591Z,93.12
2022-10-01T17:52:59.077Z,93.39
2022-10-01T18:03:08.150Z,93.67
2022-10-01T18:13:22.351Z,94.16
2022-10-01T18:23:38.770Z,94.86
2022-10-01T18:34:11.531Z,95.40
2022-10-01T18:44:28.665Z,96.30
2022-10-01T18:55:06.701Z,96.68
2022-10-01T19:05:59.500Z,97.71
2022-10-01T19:16:38.117Z,98.39
2022-10-01T19:27:01.327Z,99.18
2022-10-01T19:38:02.673Z,99.64
2022-10-01T19:48:51.506Z,99.94
2022-10-01T19:59:23.182Z,100.00
2022-10-01T20:10:05.539Z,100.00
2022-10-01T20:20:42.833Z,100.00
2022-10-01T20:31:10.426Z,100.00
2022-10-01T20:41:48.629Z,100.00
2022-10-01T20:53:04.013Z,100.00
2022-10-01T21:04:16.505Z,100.00
2022-10-01T21:14:28.186Z,100.00
2022-10-01T21:25:26.007Z,100.00
2022-10-01T21:36:10.036Z,100.00
2022-10-01T21:46:31.914Z,100.00
2022-10-01T21:56:55.121Z,100.00
2022-10-01T22:07:49.968Z,100.00
2022-10-01T22:18:18.623Z,100.00
2022-10-01T22:28:53.978Z,100.00
2022-10-01T22:39:54.179Z,100.00
2022-10-01T22:50:53.734Z,100.00
2022-10-01T23:01:38.038Z,100.00
2022-10-01T23:12:57.802Z,100.00
2022-10-01T23:24:18.758Z,100.00
2022-10-01T23:34:52.485Z,100.00
2022-10-01T23:45:37.097Z,100.00
2022-10-01T23:56:34.912Z,100.00
